Dinwiddie County Information

FAA: PTB - ICAO: KPTB

Dinwiddie County (Airport) Location

State Virginia
County Dinwiddie
City Petersburg
Dinwiddie County (Airport) is 5 miles southwest of Petersburg, VA.
Latitude 37-11-03.4860N
Longitude 077-30-22.2290W
Elevation 192ft

Dinwiddie County METARs

METAR KPTB 191135Z AUTO 22004KT 10SM CLR 21/15 A2980 RMK AO2 T02080150
Altimeter 29.80"
Temperature 20.8°C (69.4°F)
Wind 220° at 4KT
Clouds Skies are clear.
Visibility 10.0mi
Time observed: 2022-05-19T11:35:00Z

Dinwiddie County (Airport) Details

Status Operational
Activation April 1976
Ownership Public
Usage Public
Chart WASHINGTON
ATC on-site No
Beacon schedule sunset-sunrise
Beacon color clear green

Dinwiddie County (Airport) Contacts

Owner DINWIDDIE ARPT AND INDUSTRIAL AUTH.
Owner address 6775 BECK-CHAPPELL DRIVE, PETERSBURG, VA 23803
Owner phone 804-861-0218
Manager MARK RATH, DIRECTOR
Manager address 500 J.CLYDE MORRIS BLVD., NEWPORT NEWS, VA 23602
Manager phone 757-534-5276

Dinwiddie County Radio Frequencies

Dinwiddie County (Airport) Radio Frequencies

UNICOM 122.7
Common traffic advisory frequency (CTAF) 122.7